createdAt,value
2022-11-05T00:01:11.708Z,5.67
2022-11-05T00:03:57.537Z,6.53
2022-11-05T00:06:43.415Z,5.77
2022-11-05T00:09:31.745Z,6.40
2022-11-05T00:12:19.626Z,6.10
2022-11-05T00:15:05.519Z,6.10
2022-11-05T00:17:33.937Z,6.43
2022-11-05T00:20:02.337Z,6.50
2022-11-05T00:22:52.815Z,6.97
2022-11-05T00:25:22.959Z,5.83
2022-11-05T00:27:53.196Z,5.53
2022-11-05T00:30:24.306Z,5.60
2022-11-05T00:32:53.485Z,6.47
2022-11-05T00:35:23.284Z,6.70
2022-11-05T00:37:53.997Z,5.63
2022-11-05T00:40:23.843Z,5.83
2022-11-05T00:43:09.731Z,5.13
2022-11-05T00:45:38.901Z,5.07
2022-11-05T00:48:25.083Z,6.00
2022-11-05T00:50:53.294Z,5.57
2022-11-05T00:53:24.875Z,5.57
2022-11-05T00:55:54.681Z,5.37
2022-11-05T00:58:23.940Z,6.30
2022-11-05T01:00:53.398Z,5.57
2022-11-05T01:03:25.048Z,5.37
2022-11-05T01:05:55.284Z,6.10
2022-11-05T01:08:25.395Z,6.20
2022-11-05T01:10:56.595Z,4.73
2022-11-05T01:13:27.186Z,5.30
2022-11-05T01:15:56.616Z,4.57
2022-11-05T01:18:26.068Z,5.00
2022-11-05T01:20:54.193Z,4.23
2022-11-05T01:23:22.365Z,5.00
2022-11-05T01:25:50.509Z,4.43
2022-11-05T01:28:20.330Z,4.03
2022-11-05T01:30:56.650Z,4.90
2022-11-05T01:33:24.852Z,4.13
2022-11-05T01:35:53.468Z,3.40
2022-11-05T01:38:24.136Z,3.83
2022-11-05T01:40:53.144Z,3.00
2022-11-05T01:43:24.458Z,4.17
2022-11-05T01:45:55.165Z,4.13
2022-11-05T01:48:26.422Z,4.30
2022-11-05T01:50:59.330Z,3.67
2022-11-05T01:53:33.531Z,3.03
2022-11-05T01:56:07.179Z,3.43
2022-11-05T01:58:42.604Z,4.87
2022-11-05T02:01:10.791Z,4.23
2022-11-05T02:03:39.939Z,4.83
2022-11-05T02:06:09.513Z,4.80
2022-11-05T02:08:53.192Z,4.90
2022-11-05T02:11:21.699Z,5.87
2022-11-05T02:13:51.919Z,6.10
2022-11-05T02:16:31.964Z,6.43
2022-11-05T02:19:08.429Z,6.70
2022-11-05T02:22:05.997Z,6.10
2022-11-05T02:25:02.542Z,6.90
2022-11-05T02:27:51.733Z,7.53
2022-11-05T02:30:38.866Z,9.70
2022-11-05T02:33:23.213Z,10.30
2022-11-05T02:36:07.705Z,10.00
2022-11-05T02:38:42.649Z,9.27
2022-11-05T02:41:19.708Z,10.77
2022-11-05T02:44:00.856Z,9.93
2022-11-05T02:46:38.836Z,11.67
2022-11-05T02:49:14.810Z,11.90
2022-11-05T02:51:48.447Z,9.93
2022-11-05T02:54:23.291Z,11.83
2022-11-05T02:56:55.001Z,11.10
2022-11-05T02:59:24.672Z,11.30
2022-11-05T03:01:55.144Z,10.63
2022-11-05T03:04:26.065Z,11.13
2022-11-05T03:07:26.223Z,10.73
2022-11-05T03:10:19.721Z,10.80
2022-11-05T03:13:01.298Z,10.90
2022-11-05T03:15:44.454Z,10.30
2022-11-05T03:18:24.109Z,9.97
2022-11-05T03:20:58.293Z,10.80
2022-11-05T03:23:31.377Z,10.30
2022-11-05T03:26:05.721Z,10.03
2022-11-05T03:28:37.210Z,9.40
2022-11-05T03:31:08.117Z,9.60
2022-11-05T03:33:39.826Z,9.63
2022-11-05T03:36:17.819Z,8.63
2022-11-05T03:38:50.545Z,8.50
2022-11-05T03:41:20.414Z,9.13
2022-11-05T03:43:53.155Z,9.20
2022-11-05T03:46:27.671Z,8.70
2022-11-05T03:49:00.243Z,8.70
2022-11-05T03:51:37.705Z,8.00
2022-11-05T03:54:06.769Z,8.20
2022-11-05T03:56:39.482Z,9.07
2022-11-05T03:59:10.304Z,8.30
2022-11-05T04:01:39.574Z,9.50
2022-11-05T04:04:09.844Z,7.93
2022-11-05T04:07:09.650Z,7.80
2022-11-05T04:09:57.818Z,8.10
2022-11-05T04:12:44.009Z,8.73
2022-11-05T04:15:12.622Z,8.53
2022-11-05T04:17:39.772Z,8.63
2022-11-05T04:20:27.498Z,7.87
2022-11-05T04:23:18.038Z,8.00
2022-11-05T04:25:46.521Z,7.70
2022-11-05T04:28:14.818Z,8.77
2022-11-05T04:30:44.304Z,7.83
2022-11-05T04:33:14.858Z,7.03
2022-11-05T04:35:46.688Z,7.27
2022-11-05T04:38:16.490Z,7.93
2022-11-05T04:40:45.608Z,7.80
2022-11-05T04:43:15.706Z,7.60
2022-11-05T04:45:44.484Z,7.53
2022-11-05T04:48:12.892Z,8.20
2022-11-05T04:50:41.020Z,7.43
2022-11-05T04:53:11.076Z,7.50
2022-11-05T04:55:39.431Z,7.33
2022-11-05T04:58:07.511Z,8.57
2022-11-05T05:00:38.160Z,8.07
2022-11-05T05:03:06.355Z,8.87
2022-11-05T05:05:34.466Z,9.27
2022-11-05T05:08:02.950Z,8.33
2022-11-05T05:10:32.661Z,9.10
2022-11-05T05:13:01.055Z,9.20
2022-11-05T05:15:29.250Z,8.70
2022-11-05T05:17:57.366Z,8.87
2022-11-05T05:20:43.199Z,8.07
2022-11-05T05:23:14.269Z,8.93
2022-11-05T05:25:43.800Z,7.87
2022-11-05T05:28:14.656Z,8.50
2022-11-05T05:30:42.736Z,7.33
2022-11-05T05:33:11.512Z,8.63
2022-11-05T05:35:39.788Z,9.13
2022-11-05T05:38:07.836Z,8.57
2022-11-05T05:40:36.032Z,8.83
2022-11-05T05:43:05.520Z,8.03
2022-11-05T05:45:36.659Z,8.67
2022-11-05T05:48:05.430Z,8.03
2022-11-05T05:50:36.506Z,7.87
2022-11-05T05:53:04.605Z,7.80
2022-11-05T05:55:33.043Z,7.53
2022-11-05T05:58:01.236Z,7.83
2022-11-05T06:00:30.761Z,7.60
2022-11-05T06:02:58.927Z,7.70
2022-11-05T06:05:30.540Z,8.37
2022-11-05T06:07:59.278Z,7.60
2022-11-05T06:10:27.474Z,8.23
2022-11-05T06:12:55.712Z,7.97
2022-11-05T06:15:24.127Z,7.30
2022-11-05T06:17:53.596Z,6.97
2022-11-05T06:20:22.233Z,7.30
2022-11-05T06:22:56.168Z,7.60
2022-11-05T06:25:24.803Z,7.63
2022-11-05T06:27:53.063Z,6.87
2022-11-05T06:30:22.015Z,6.83
2022-11-05T06:32:50.191Z,6.63
2022-11-05T06:35:19.704Z,6.70
2022-11-05T06:37:48.083Z,6.83
2022-11-05T06:40:16.282Z,6.73
2022-11-05T06:42:44.384Z,7.57
2022-11-05T06:45:12.475Z,7.27
2022-11-05T06:47:40.945Z,6.63
2022-11-05T06:50:09.631Z,6.63
2022-11-05T06:52:41.226Z,6.93
2022-11-05T06:55:10.454Z,6.90
2022-11-05T06:57:39.647Z,6.07
2022-11-05T07:00:09.752Z,6.50
2022-11-05T07:02:37.806Z,6.40
2022-11-05T07:05:07.286Z,6.33
2022-11-05T07:07:35.494Z,6.40
2022-11-05T07:10:05.823Z,6.20
2022-11-05T07:12:33.960Z,6.00
2022-11-05T07:15:02.457Z,5.77
2022-11-05T07:17:30.760Z,6.00
2022-11-05T07:19:58.898Z,6.23
2022-11-05T07:22:28.941Z,5.80
2022-11-05T07:24:57.081Z,5.23
2022-11-05T07:27:26.747Z,5.33
2022-11-05T07:29:54.890Z,5.40
2022-11-05T07:32:22.996Z,7.00
2022-11-05T07:34:51.134Z,6.07
2022-11-05T07:37:19.299Z,6.97
2022-11-05T07:39:47.362Z,6.00
2022-11-05T07:42:15.602Z,6.10
2022-11-05T07:44:45.563Z,7.07
2022-11-05T07:47:13.683Z,6.90
2022-11-05T07:49:42.150Z,5.77
2022-11-05T07:52:10.954Z,7.57
2022-11-05T07:54:39.075Z,6.60
2022-11-05T07:57:07.184Z,5.93
2022-11-05T07:59:35.315Z,5.80
2022-11-05T08:02:05.393Z,6.67
2022-11-05T08:04:33.716Z,5.67
2022-11-05T08:07:07.607Z,6.27
2022-11-05T08:09:43.478Z,7.47
2022-11-05T08:12:11.849Z,7.23
2022-11-05T08:14:39.975Z,7.80
2022-11-05T08:17:10.759Z,7.50
2022-11-05T08:19:40.111Z,7.50
2022-11-05T08:22:08.403Z,7.33
2022-11-05T08:24:36.573Z,7.23
2022-11-05T08:27:04.966Z,7.10
2022-11-05T08:29:34.396Z,7.43
2022-11-05T08:32:02.705Z,7.27
2022-11-05T08:34:32.408Z,7.00
2022-11-05T08:37:02.210Z,7.07
2022-11-05T08:39:31.071Z,8.60
2022-11-05T08:41:59.513Z,7.87
2022-11-05T08:44:27.747Z,6.97
2022-11-05T08:46:56.466Z,6.77
2022-11-05T08:49:24.873Z,6.50
2022-11-05T08:51:54.347Z,6.10
2022-11-05T08:54:24.098Z,5.93
2022-11-05T08:56:52.624Z,6.10
2022-11-05T08:59:20.922Z,5.40
2022-11-05T09:01:50.660Z,4.63
2022-11-05T09:04:18.892Z,4.77
2022-11-05T09:06:47.218Z,4.00
2022-11-05T09:09:16.717Z,3.97
2022-11-05T09:12:10.479Z,4.10
2022-11-05T09:14:33.250Z,3.83
2022-11-05T09:17:01.573Z,4.40
2022-11-05T09:19:29.943Z,4.00
2022-11-05T09:21:59.476Z,3.83
2022-11-05T09:24:29.006Z,4.77
2022-11-05T09:26:57.090Z,3.63
2022-11-05T09:29:26.291Z,3.60
2022-11-05T09:31:54.623Z,4.00
2022-11-05T09:34:22.982Z,3.57
2022-11-05T09:36:51.092Z,4.20
2022-11-05T09:39:19.260Z,5.50
2022-11-05T09:41:50.058Z,3.77
2022-11-05T09:44:33.719Z,4.00
2022-11-05T09:47:06.187Z,4.03
2022-11-05T09:49:40.114Z,4.00
2022-11-05T09:52:13.408Z,4.87
2022-11-05T09:54:46.133Z,3.17
2022-11-05T09:57:23.215Z,4.13
2022-11-05T09:59:55.091Z,3.70
2022-11-05T10:02:28.690Z,4.07
2022-11-05T10:05:04.910Z,3.47
2022-11-05T10:07:43.495Z,4.20
2022-11-05T10:10:27.182Z,3.57
2022-11-05T10:13:02.581Z,4.27
2022-11-05T10:15:33.739Z,4.40
2022-11-05T10:18:10.992Z,4.17
2022-11-05T10:20:40.639Z,3.83
2022-11-05T10:23:14.036Z,4.07
2022-11-05T10:25:45.210Z,3.67
2022-11-05T10:28:19.329Z,4.10
2022-11-05T10:30:51.090Z,4.43
2022-11-05T10:33:26.092Z,3.40
2022-11-05T10:36:00.344Z,4.27
2022-11-05T10:38:28.572Z,3.10
2022-11-05T10:41:10.748Z,3.87
2022-11-05T10:43:47.085Z,3.40
2022-11-05T10:46:27.499Z,3.60
2022-11-05T10:49:05.425Z,3.20
2022-11-05T10:51:34.720Z,4.10
2022-11-05T10:54:10.475Z,4.00
2022-11-05T10:56:40.490Z,4.27
2022-11-05T10:59:23.412Z,3.53
2022-11-05T11:01:58.641Z,3.00
2022-11-05T11:04:30.370Z,2.83
2022-11-05T11:07:03.440Z,4.10
2022-11-05T11:09:37.592Z,3.73
2022-11-05T11:12:09.053Z,3.47
2022-11-05T11:14:38.628Z,4.27
2022-11-05T11:17:36.719Z,4.30
2022-11-05T11:20:23.593Z,3.30
2022-11-05T11:23:04.153Z,3.63
2022-11-05T11:25:37.023Z,4.30
2022-11-05T11:28:07.233Z,3.73
2022-11-05T11:30:36.853Z,3.37
2022-11-05T11:33:10.538Z,3.00
2022-11-05T11:35:40.363Z,2.40
2022-11-05T11:38:13.385Z,1.93
2022-11-05T11:40:41.797Z,2.47
2022-11-05T11:43:20.326Z,2.13
2022-11-05T11:45:53.199Z,2.50
2022-11-05T11:48:26.342Z,2.27
2022-11-05T11:50:54.836Z,2.20
2022-11-05T11:53:36.028Z,2.20
2022-11-05T11:56:16.858Z,1.67
2022-11-05T11:58:47.948Z,1.60
2022-11-05T12:01:50.853Z,1.57
2022-11-05T12:05:03.427Z,1.10
2022-11-05T12:07:49.278Z,1.30
2022-11-05T12:10:35.258Z,0.93
2022-11-05T12:13:23.990Z,1.30
2022-11-05T12:15:56.620Z,1.27
2022-11-05T12:18:37.152Z,1.10
2022-11-05T12:21:14.659Z,0.93
2022-11-05T12:24:00.879Z,1.60
2022-11-05T12:26:42.403Z,0.90
2022-11-05T12:29:36.187Z,1.17
2022-11-05T12:32:41.002Z,0.87
2022-11-05T12:35:25.281Z,1.00
2022-11-05T12:38:08.781Z,0.77
2022-11-05T12:41:01.041Z,0.67
2022-11-05T12:43:35.985Z,0.70
2022-11-05T12:46:11.886Z,0.80
2022-11-05T12:48:57.678Z,0.60
2022-11-05T12:51:44.059Z,0.70
2022-11-05T12:54:22.679Z,0.80
2022-11-05T12:56:54.811Z,0.60
2022-11-05T12:59:26.328Z,1.00
2022-11-05T13:02:02.452Z,0.80
2022-11-05T13:04:37.477Z,0.80
2022-11-05T13:07:10.757Z,0.70
2022-11-05T13:09:47.002Z,0.60
2022-11-05T13:12:18.372Z,0.50
2022-11-05T13:14:51.639Z,0.63
2022-11-05T13:17:22.646Z,0.50
2022-11-05T13:20:04.548Z,1.10
2022-11-05T13:22:40.995Z,1.13
2022-11-05T13:25:17.354Z,0.93
2022-11-05T13:27:59.308Z,0.60
2022-11-05T13:30:31.268Z,0.70
2022-11-05T13:33:04.208Z,0.40
2022-11-05T13:35:38.648Z,0.67
2022-11-05T13:38:29.510Z,0.57
2022-11-05T13:41:15.953Z,0.60
2022-11-05T13:44:11.073Z,1.43
2022-11-05T13:46:53.352Z,1.60
2022-11-05T13:49:47.191Z,0.60
2022-11-05T13:52:41.959Z,0.70
2022-11-05T13:55:48.778Z,0.67
2022-11-05T13:58:44.593Z,0.90
2022-11-05T14:01:23.947Z,0.73
2022-11-05T14:03:54.669Z,1.00
2022-11-05T14:06:27.219Z,1.30
2022-11-05T14:08:59.714Z,1.43
2022-11-05T14:11:32.301Z,1.20
2022-11-05T14:14:04.160Z,7.93
2022-11-05T14:16:49.684Z,2.40
2022-11-05T14:19:34.642Z,2.13
2022-11-05T14:22:40.828Z,1.00
2022-11-05T14:25:58.120Z,0.90
2022-11-05T14:28:46.852Z,0.70
2022-11-05T14:31:54.287Z,0.70
2022-11-05T14:34:24.404Z,0.50
2022-11-05T14:37:24.107Z,0.67
2022-11-05T14:39:54.559Z,0.90
2022-11-05T14:42:27.726Z,2.60
2022-11-05T14:45:22.144Z,1.47
2022-11-05T14:47:56.270Z,1.97
2022-11-05T14:50:31.225Z,0.87
2022-11-05T14:53:05.485Z,0.60
2022-11-05T14:55:38.171Z,1.17
2022-11-05T14:58:32.867Z,0.50
2022-11-05T15:01:02.742Z,0.60
2022-11-05T15:03:34.754Z,4.83
2022-11-05T15:06:25.906Z,0.90
2022-11-05T15:09:30.193Z,0.70
2022-11-05T15:12:09.616Z,0.63
2022-11-05T15:14:42.945Z,0.80
2022-11-05T15:17:18.793Z,3.87
2022-11-05T15:19:48.312Z,2.80
2022-11-05T15:22:27.926Z,0.70
2022-11-05T15:24:56.877Z,5.87
2022-11-05T15:27:50.656Z,4.07
2022-11-05T15:30:21.096Z,6.40
2022-11-05T15:32:49.581Z,3.37
2022-11-05T15:35:23.616Z,2.57
2022-11-05T15:37:58.775Z,0.90
2022-11-05T15:40:32.061Z,1.90
2022-11-05T15:43:16.405Z,6.53
2022-11-05T15:45:44.675Z,2.37
2022-11-05T15:48:17.204Z,2.70
2022-11-05T15:50:45.560Z,2.20
2022-11-05T15:53:44.185Z,1.77
2022-11-05T15:56:17.186Z,1.20
2022-11-05T15:58:54.540Z,1.20
2022-11-05T16:01:24.816Z,1.50
2022-11-05T16:03:55.655Z,5.60
2022-11-05T16:06:30.356Z,2.20
2022-11-05T16:08:58.727Z,4.20
2022-11-05T16:11:28.294Z,15.67
2022-11-05T16:14:15.101Z,13.20
2022-11-05T16:16:43.830Z,3.70
2022-11-05T16:19:40.264Z,1.40
2022-11-05T16:22:09.183Z,2.30
2022-11-05T16:24:38.016Z,3.57
2022-11-05T16:27:06.435Z,2.83
2022-11-05T16:29:38.452Z,5.93
2022-11-05T16:32:18.328Z,11.77
2022-11-05T16:34:49.728Z,9.93
2022-11-05T16:37:20.137Z,24.10
2022-11-05T16:39:50.767Z,33.43
2022-11-05T16:42:42.020Z,68.43
2022-11-05T16:45:14.946Z,9.53
2022-11-05T16:47:44.554Z,3.00
2022-11-05T16:50:24.029Z,7.13
2022-11-05T16:52:52.655Z,7.27
2022-11-05T16:55:21.445Z,4.37
2022-11-05T16:57:53.628Z,2.00
2022-11-05T17:00:24.608Z,2.10
2022-11-05T17:02:53.448Z,1.57
2022-11-05T17:05:24.851Z,2.10
2022-11-05T17:07:53.717Z,2.07
2022-11-05T17:10:22.649Z,1.77
2022-11-05T17:12:51.667Z,1.93
2022-11-05T17:15:24.516Z,9.17
2022-11-05T17:17:53.634Z,2.30
2022-11-05T17:20:40.337Z,2.63
2022-11-05T17:23:10.569Z,3.80
2022-11-05T17:25:39.666Z,3.87
2022-11-05T17:28:08.902Z,7.20
2022-11-05T17:30:41.711Z,6.43
2022-11-05T17:33:11.450Z,4.57
2022-11-05T17:35:40.663Z,5.40
2022-11-05T17:38:09.016Z,3.90
2022-11-05T17:40:38.173Z,3.27
2022-11-05T17:43:06.702Z,2.57
2022-11-05T17:45:35.103Z,4.93
2022-11-05T17:48:05.098Z,5.90
2022-11-05T17:50:33.271Z,7.00
2022-11-05T17:53:01.708Z,3.47
2022-11-05T17:55:29.901Z,3.03
2022-11-05T17:57:58.692Z,4.63
2022-11-05T18:00:27.610Z,7.27
2022-11-05T18:02:55.826Z,2.90
2022-11-05T18:05:27.953Z,3.70
2022-11-05T18:07:57.822Z,9.97
2022-11-05T18:10:26.160Z,5.83
2022-11-05T18:12:54.834Z,6.17
2022-11-05T18:15:24.616Z,6.83
2022-11-05T18:17:52.954Z,4.90
2022-11-05T18:20:22.022Z,4.20
2022-11-05T18:22:52.878Z,3.13
2022-11-05T18:25:21.258Z,3.90
2022-11-05T18:27:49.425Z,4.03
2022-11-05T18:30:17.615Z,3.80
2022-11-05T18:32:47.721Z,6.80
2022-11-05T18:35:16.095Z,5.93
2022-11-05T18:37:44.230Z,3.60
2022-11-05T18:40:14.237Z,3.80
2022-11-05T18:42:42.949Z,3.27
2022-11-05T18:45:12.665Z,3.47
2022-11-05T18:47:41.096Z,7.07
2022-11-05T18:50:10.555Z,8.43
2022-11-05T18:52:39.065Z,3.70
2022-11-05T18:55:08.898Z,2.30
2022-11-05T18:57:39.296Z,4.07
2022-11-05T19:00:08.879Z,2.90
2022-11-05T19:02:37.090Z,3.80
2022-11-05T19:05:28.089Z,8.87
2022-11-05T19:07:54.260Z,4.63
2022-11-05T19:10:22.525Z,6.57
2022-11-05T19:12:54.531Z,4.07
2022-11-05T19:15:22.833Z,4.60
2022-11-05T19:17:51.162Z,4.30
2022-11-05T19:20:19.572Z,5.43
2022-11-05T19:22:47.780Z,4.30
2022-11-05T19:25:15.944Z,3.13
2022-11-05T19:27:44.148Z,4.70
2022-11-05T19:30:16.223Z,2.60
2022-11-05T19:32:44.394Z,3.53
2022-11-05T19:35:12.521Z,7.37
2022-11-05T19:37:41.161Z,8.07
2022-11-05T19:40:11.144Z,7.37
2022-11-05T19:42:39.331Z,3.50
2022-11-05T19:45:30.381Z,2.07
2022-11-05T19:47:58.275Z,1.90
2022-11-05T19:50:26.756Z,3.13
2022-11-05T19:52:54.896Z,2.83
2022-11-05T19:55:23.064Z,8.60
2022-11-05T19:57:51.297Z,8.97
2022-11-05T20:00:19.744Z,7.20
2022-11-05T20:02:48.276Z,6.50
2022-11-05T20:05:18.398Z,6.37
2022-11-05T20:07:52.332Z,6.00
2022-11-05T20:10:21.181Z,2.07
2022-11-05T20:12:49.696Z,1.63
2022-11-05T20:15:19.728Z,3.27
2022-11-05T20:17:51.202Z,3.63
2022-11-05T20:20:23.889Z,5.13
2022-11-05T20:22:53.895Z,6.37
2022-11-05T20:25:22.068Z,4.97
2022-11-05T20:27:50.367Z,5.13
2022-11-05T20:30:19.055Z,9.43
2022-11-05T20:32:48.248Z,9.87
2022-11-05T20:35:16.409Z,6.93
2022-11-05T20:37:49.790Z,7.20
2022-11-05T20:40:21.844Z,4.40
2022-11-05T20:42:50.055Z,4.00
2022-11-05T20:45:18.322Z,6.50
2022-11-05T20:47:46.932Z,14.17
2022-11-05T20:50:15.308Z,6.30
2022-11-05T20:52:44.954Z,10.73
2022-11-05T20:55:13.171Z,3.93
2022-11-05T20:57:41.991Z,2.23
2022-11-05T21:00:11.203Z,2.03
2022-11-05T21:02:41.310Z,2.30
2022-11-05T21:05:10.284Z,3.87
2022-11-05T21:07:38.455Z,1.90
2022-11-05T21:10:08.462Z,1.60
2022-11-05T21:12:36.663Z,1.97
2022-11-05T21:15:08.652Z,1.67
2022-11-05T21:17:37.624Z,2.07
2022-11-05T21:20:06.525Z,2.47
2022-11-05T21:22:34.721Z,1.90
2022-11-05T21:25:02.943Z,3.57
2022-11-05T21:27:32.484Z,3.10
2022-11-05T21:30:01.446Z,4.77
2022-11-05T21:32:29.710Z,2.50
2022-11-05T21:34:57.905Z,3.17
2022-11-05T21:37:26.612Z,2.20
2022-11-05T21:39:55.426Z,2.30
2022-11-05T21:42:23.596Z,2.37
2022-11-05T21:44:59.112Z,2.47
2022-11-05T21:47:30.467Z,2.13
2022-11-05T21:49:58.731Z,4.17
2022-11-05T21:52:45.956Z,4.40
2022-11-05T21:55:31.760Z,2.57
2022-11-05T21:58:21.273Z,5.63
2022-11-05T22:00:50.866Z,2.50
2022-11-05T22:03:19.524Z,2.03
2022-11-05T22:05:47.733Z,1.90
2022-11-05T22:08:20.366Z,2.80
2022-11-05T22:10:48.645Z,1.60
2022-11-05T22:13:24.466Z,2.23
2022-11-05T22:16:17.581Z,1.60
2022-11-05T22:18:45.893Z,3.87
2022-11-05T22:21:17.364Z,3.13
2022-11-05T22:23:46.214Z,1.77
2022-11-05T22:26:16.541Z,1.87
2022-11-05T22:28:44.669Z,2.23
2022-11-05T22:31:15.130Z,1.60
2022-11-05T22:33:44.411Z,2.60
2022-11-05T22:36:12.958Z,1.93
2022-11-05T22:38:41.341Z,1.87
2022-11-05T22:41:10.141Z,1.10
2022-11-05T22:43:39.223Z,1.93
2022-11-05T22:46:09.277Z,2.17
2022-11-05T22:48:40.355Z,1.63
2022-11-05T22:51:11.587Z,1.63
2022-11-05T22:53:40.441Z,0.90
2022-11-05T22:56:10.385Z,2.20
2022-11-05T22:58:39.052Z,4.20
2022-11-05T23:01:09.180Z,3.47
2022-11-05T23:03:40.344Z,1.73
2022-11-05T23:06:36.148Z,2.23
2022-11-05T23:09:24.729Z,1.70
2022-11-05T23:11:54.900Z,1.60
2022-11-05T23:14:23.178Z,2.10
2022-11-05T23:17:09.180Z,1.57
2022-11-05T23:19:56.053Z,1.30
2022-11-05T23:22:44.442Z,2.00
2022-11-05T23:25:17.789Z,1.63
2022-11-05T23:27:47.590Z,2.83
2022-11-05T23:30:18.555Z,1.57
2022-11-05T23:32:46.819Z,1.47
2022-11-05T23:35:17.134Z,1.07
2022-11-05T23:38:02.848Z,1.07
2022-11-05T23:40:53.347Z,1.10
2022-11-05T23:43:38.807Z,0.80
2022-11-05T23:46:28.056Z,1.30
2022-11-05T23:48:56.218Z,1.10
2022-11-05T23:51:25.757Z,1.07
2022-11-05T23:53:53.912Z,1.43
2022-11-05T23:56:22.553Z,1.30
2022-11-05T23:58:51.045Z,1.50
